sensor_id;sensor_type;location;lat;lon;timestamp;pressure;altitude;pressure_sealevel;temperature;humidity
77112;BME280;66064;50.226;14.344;2023-05-17T00:01:38;99606.13;;;10.27;55.93
77112;BME280;66064;50.226;14.344;2023-05-17T00:04:04;99600.78;;;10.26;57.44
77112;BME280;66064;50.226;14.344;2023-05-17T00:06:30;99624.69;;;10.24;56.43
77112;BME280;66064;50.226;14.344;2023-05-17T00:08:57;99615.81;;;10.22;56.97
77112;BME280;66064;50.226;14.344;2023-05-17T00:11:23;99629.06;;;10.19;55.46
77112;BME280;66064;50.226;14.344;2023-05-17T00:13:49;99624.59;;;10.18;56.25
77112;BME280;66064;50.226;14.344;2023-05-17T00:16:16;99623.75;;;10.19;55.30
77112;BME280;66064;50.226;14.344;2023-05-17T00:18:42;99622.75;;;10.14;56.75
77112;BME280;66064;50.226;14.344;2023-05-17T00:21:09;99631.75;;;10.19;55.65
77112;BME280;66064;50.226;14.344;2023-05-17T00:23:35;99629.00;;;10.16;56.22
77112;BME280;66064;50.226;14.344;2023-05-17T00:26:02;99632.56;;;10.16;56.21
77112;BME280;66064;50.226;14.344;2023-05-17T00:28:28;99632.50;;;10.13;56.64
77112;BME280;66064;50.226;14.344;2023-05-17T00:30:54;99638.69;;;10.12;56.32
77112;BME280;66064;50.226;14.344;2023-05-17T00:33:20;99629.72;;;10.03;56.76
77112;BME280;66064;50.226;14.344;2023-05-17T00:35:47;99631.41;;;9.98;56.98
77112;BME280;66064;50.226;14.344;2023-05-17T00:38:13;99639.47;;;10.02;57.35
77112;BME280;66064;50.226;14.344;2023-05-17T00:40:40;99636.69;;;9.95;58.75
77112;BME280;66064;50.226;14.344;2023-05-17T00:43:06;99639.28;;;9.90;57.19
77112;BME280;66064;50.226;14.344;2023-05-17T00:45:32;99641.03;;;9.88;56.81
77112;BME280;66064;50.226;14.344;2023-05-17T00:48:00;99634.72;;;9.81;57.11
77112;BME280;66064;50.226;14.344;2023-05-17T00:50:27;99644.38;;;9.76;58.42
77112;BME280;66064;50.226;14.344;2023-05-17T00:52:54;99634.56;;;9.71;57.65
77112;BME280;66064;50.226;14.344;2023-05-17T00:55:21;99640.69;;;9.65;58.33
77112;BME280;66064;50.226;14.344;2023-05-17T00:57:48;99634.50;;;9.66;57.03
77112;BME280;66064;50.226;14.344;2023-05-17T01:00:14;99617.53;;;9.57;57.07
77112;BME280;66064;50.226;14.344;2023-05-17T01:02:41;99629.94;;;9.56;58.40
77112;BME280;66064;50.226;14.344;2023-05-17T01:05:09;99626.28;;;9.50;57.27
77112;BME280;66064;50.226;14.344;2023-05-17T01:07:35;99634.22;;;9.48;57.25
77112;BME280;66064;50.226;14.344;2023-05-17T01:10:03;99639.47;;;9.45;57.92
77112;BME280;66064;50.226;14.344;2023-05-17T01:13:17;99650.16;;;9.48;59.08
77112;BME280;66064;50.226;14.344;2023-05-17T01:15:39;99654.53;;;9.46;57.56
77112;BME280;66064;50.226;14.344;2023-05-17T01:18:27;99670.44;;;9.44;59.07
77112;BME280;66064;50.226;14.344;2023-05-17T01:20:59;99675.72;;;9.40;59.27
77112;BME280;66064;50.226;14.344;2023-05-17T01:23:47;99675.56;;;9.32;58.66
77112;BME280;66064;50.226;14.344;2023-05-17T01:26:34;99685.38;;;9.36;57.75
77112;BME280;66064;50.226;14.344;2023-05-17T01:29:03;99687.03;;;9.30;57.69
77112;BME280;66064;50.226;14.344;2023-05-17T01:31:31;99681.63;;;9.24;58.74
77112;BME280;66064;50.226;14.344;2023-05-17T01:33:57;99688.78;;;9.29;58.28
77112;BME280;66064;50.226;14.344;2023-05-17T01:36:23;99687.75;;;9.20;59.64
77112;BME280;66064;50.226;14.344;2023-05-17T01:38:51;99685.06;;;9.18;59.56
77112;BME280;66064;50.226;14.344;2023-05-17T01:41:29;99689.31;;;9.10;59.55
77112;BME280;66064;50.226;14.344;2023-05-17T01:44:42;99683.13;;;9.09;59.31
77112;BME280;66064;50.226;14.344;2023-05-17T01:46:50;99690.97;;;9.02;58.71
77112;BME280;66064;50.226;14.344;2023-05-17T01:49:36;99691.72;;;8.96;59.84
77112;BME280;66064;50.226;14.344;2023-05-17T01:52:17;99696.06;;;8.90;60.34
77112;BME280;66064;50.226;14.344;2023-05-17T01:54:49;99702.13;;;8.84;60.14
77112;BME280;66064;50.226;14.344;2023-05-17T01:57:19;99706.44;;;8.79;61.85
77112;BME280;66064;50.226;14.344;2023-05-17T01:59:48;99676.94;;;8.64;59.82
77112;BME280;66064;50.226;14.344;2023-05-17T02:02:17;99694.75;;;8.69;60.54
77112;BME280;66064;50.226;14.344;2023-05-17T02:04:43;99699.09;;;8.66;59.88
77112;BME280;66064;50.226;14.344;2023-05-17T02:07:10;99688.25;;;8.54;61.93
77112;BME280;66064;50.226;14.344;2023-05-17T02:09:35;99692.63;;;8.52;61.83
77112;BME280;66064;50.226;14.344;2023-05-17T02:12:02;99697.09;;;8.54;60.67
77112;BME280;66064;50.226;14.344;2023-05-17T02:14:28;99705.03;;;8.53;61.83
77112;BME280;66064;50.226;14.344;2023-05-17T02:16:55;99692.50;;;8.46;63.22
77112;BME280;66064;50.226;14.344;2023-05-17T02:19:21;99709.31;;;8.46;62.57
77112;BME280;66064;50.226;14.344;2023-05-17T02:21:48;99694.03;;;8.34;61.77
77112;BME280;66064;50.226;14.344;2023-05-17T02:24:15;99699.38;;;8.36;63.33
77112;BME280;66064;50.226;14.344;2023-05-17T02:26:41;99696.50;;;8.27;61.95
77112;BME280;66064;50.226;14.344;2023-05-17T02:29:08;99704.38;;;8.24;62.05
77112;BME280;66064;50.226;14.344;2023-05-17T02:31:36;99699.94;;;8.23;62.42
77112;BME280;66064;50.226;14.344;2023-05-17T02:34:02;99705.09;;;8.17;64.71
77112;BME280;66064;50.226;14.344;2023-05-17T02:36:28;99714.88;;;8.19;62.81
77112;BME280;66064;50.226;14.344;2023-05-17T02:38:55;99714.72;;;8.13;63.12
77112;BME280;66064;50.226;14.344;2023-05-17T02:41:21;99702.22;;;8.06;63.25
77112;BME280;66064;50.226;14.344;2023-05-17T02:43:47;99710.25;;;8.09;63.24
77112;BME280;66064;50.226;14.344;2023-05-17T02:46:13;99715.38;;;8.01;63.84
77112;BME280;66064;50.226;14.344;2023-05-17T02:48:40;99718.84;;;7.99;63.30
77112;BME280;66064;50.226;14.344;2023-05-17T02:51:06;99708.03;;;7.90;63.22
77112;BME280;66064;50.226;14.344;2023-05-17T02:53:32;99725.75;;;7.92;63.89
77112;BME280;66064;50.226;14.344;2023-05-17T02:55:59;99723.16;;;7.94;64.27
77112;BME280;66064;50.226;14.344;2023-05-17T02:58:25;99716.66;;;7.81;64.55
77112;BME280;66064;50.226;14.344;2023-05-17T03:00:51;99718.00;;;7.64;65.24
77112;BME280;66064;50.226;14.344;2023-05-17T03:03:17;99730.34;;;7.62;66.54
77112;BME280;66064;50.226;14.344;2023-05-17T03:05:43;99733.69;;;7.55;67.92
77112;BME280;66064;50.226;14.344;2023-05-17T03:08:09;99746.78;;;7.50;68.06
77112;BME280;66064;50.226;14.344;2023-05-17T03:10:36;99746.69;;;7.47;68.40
77112;BME280;66064;50.226;14.344;2023-05-17T03:13:03;99737.78;;;7.42;69.37
77112;BME280;66064;50.226;14.344;2023-05-17T03:15:29;99748.19;;;7.36;68.19
77112;BME280;66064;50.226;14.344;2023-05-17T03:17:57;99744.38;;;7.25;69.88
77112;BME280;66064;50.226;14.344;2023-05-17T03:20:24;99746.75;;;7.14;69.13
77112;BME280;66064;50.226;14.344;2023-05-17T03:22:50;99743.88;;;7.07;69.09
77112;BME280;66064;50.226;14.344;2023-05-17T03:25:17;99756.25;;;7.08;70.14
77112;BME280;66064;50.226;14.344;2023-05-17T03:27:43;99759.59;;;7.00;68.66
77112;BME280;66064;50.226;14.344;2023-05-17T03:30:10;99780.75;;;7.00;69.89
77112;BME280;66064;50.226;14.344;2023-05-17T03:32:39;99774.59;;;7.01;69.65
77112;BME280;66064;50.226;14.344;2023-05-17T03:35:06;99773.94;;;7.09;68.41
77112;BME280;66064;50.226;14.344;2023-05-17T03:37:33;99781.97;;;7.12;68.99
77112;BME280;66064;50.226;14.344;2023-05-17T03:39:59;99784.53;;;7.09;69.77
77112;BME280;66064;50.226;14.344;2023-05-17T03:42:25;99771.34;;;7.10;67.89
77112;BME280;66064;50.226;14.344;2023-05-17T03:44:52;99789.09;;;7.14;67.61
77112;BME280;66064;50.226;14.344;2023-05-17T03:47:19;99790.84;;;7.14;68.50
77112;BME280;66064;50.226;14.344;2023-05-17T03:49:49;99798.78;;;7.14;68.14
77112;BME280;66064;50.226;14.344;2023-05-17T03:52:15;99770.16;;;7.00;69.27
77112;BME280;66064;50.226;14.344;2023-05-17T03:54:41;99790.75;;;7.11;69.07
77112;BME280;66064;50.226;14.344;2023-05-17T03:57:07;99789.91;;;7.12;69.59
77112;BME280;66064;50.226;14.344;2023-05-17T03:59:35;99788.91;;;7.08;69.67
77112;BME280;66064;50.226;14.344;2023-05-17T04:02:00;99780.13;;;7.09;69.74
77112;BME280;66064;50.226;14.344;2023-05-17T04:04:27;99799.69;;;7.16;70.46
77112;BME280;66064;50.226;14.344;2023-05-17T04:06:53;99798.84;;;7.17;69.83
77112;BME280;66064;50.226;14.344;2023-05-17T04:09:19;99801.59;;;7.20;69.93
77112;BME280;66064;50.226;14.344;2023-05-17T04:11:45;99798.03;;;7.19;69.78
77112;BME280;66064;50.226;14.344;2023-05-17T04:14:12;99794.44;;;7.17;70.53
77112;BME280;66064;50.226;14.344;2023-05-17T04:16:38;99788.44;;;7.23;69.83
77112;BME280;66064;50.226;14.344;2023-05-17T04:19:04;99790.50;;;7.34;69.65
77112;BME280;66064;50.226;14.344;2023-05-17T04:21:32;99805.63;;;7.38;69.54
77112;BME280;66064;50.226;14.344;2023-05-17T04:23:58;99801.22;;;7.39;69.99
77112;BME280;66064;50.226;14.344;2023-05-17T04:26:25;99796.97;;;7.44;69.83
77112;BME280;66064;50.226;14.344;2023-05-17T04:28:52;99787.22;;;7.43;69.65
77112;BME280;66064;50.226;14.344;2023-05-17T04:31:18;99796.09;;;7.45;70.39
77112;BME280;66064;50.226;14.344;2023-05-17T04:33:44;99799.75;;;7.50;69.20
77112;BME280;66064;50.226;14.344;2023-05-17T04:36:11;99790.94;;;7.51;68.42
77112;BME280;66064;50.226;14.344;2023-05-17T04:38:39;99805.56;;;7.70;68.39
77112;BME280;66064;50.226;14.344;2023-05-17T04:41:05;99811.69;;;7.67;67.95
77112;BME280;66064;50.226;14.344;2023-05-17T04:43:33;99821.69;;;7.78;69.71
77112;BME280;66064;50.226;14.344;2023-05-17T04:46:00;99816.69;;;7.90;68.70
77112;BME280;66064;50.226;14.344;2023-05-17T04:48:29;99824.06;;;8.03;68.54
77112;BME280;66064;50.226;14.344;2023-05-17T04:50:59;99825.69;;;8.32;67.45
77112;BME280;66064;50.226;14.344;2023-05-17T04:53:26;99826.88;;;8.47;67.35
77112;BME280;66064;50.226;14.344;2023-05-17T04:55:53;99828.03;;;8.98;66.37
77112;BME280;66064;50.226;14.344;2023-05-17T04:58:19;99831.06;;;9.63;63.56
77112;BME280;66064;50.226;14.344;2023-05-17T05:00:45;99838.06;;;10.06;63.96
77112;BME280;66064;50.226;14.344;2023-05-17T05:03:13;99843.09;;;10.44;61.67
77112;BME280;66064;50.226;14.344;2023-05-17T05:05:38;99829.59;;;10.92;60.55
77112;BME280;66064;50.226;14.344;2023-05-17T05:08:05;99833.31;;;11.06;59.66
77112;BME280;66064;50.226;14.344;2023-05-17T05:10:31;99861.94;;;10.59;60.94
77112;BME280;66064;50.226;14.344;2023-05-17T05:12:59;99872.25;;;10.97;60.97
77112;BME280;66064;50.226;14.344;2023-05-17T05:15:26;99875.66;;;10.85;60.79
77112;BME280;66064;50.226;14.344;2023-05-17T05:17:53;99884.38;;;10.75;61.14
77112;BME280;66064;50.226;14.344;2023-05-17T05:20:19;99880.19;;;10.33;62.30
77112;BME280;66064;50.226;14.344;2023-05-17T05:22:45;99895.75;;;10.12;63.52
77112;BME280;66064;50.226;14.344;2023-05-17T05:25:11;99882.03;;;10.37;62.62
77112;BME280;66064;50.226;14.344;2023-05-17T05:27:37;99886.25;;;10.25;63.82
77112;BME280;66064;50.226;14.344;2023-05-17T05:30:04;99892.84;;;10.48;63.59
77112;BME280;66064;50.226;14.344;2023-05-17T05:32:30;99893.63;;;10.42;63.42
77112;BME280;66064;50.226;14.344;2023-05-17T05:34:56;99895.59;;;10.52;63.13
77112;BME280;66064;50.226;14.344;2023-05-17T05:37:23;99885.16;;;10.66;62.74
77112;BME280;66064;50.226;14.344;2023-05-17T05:39:49;99900.78;;;11.05;62.51
77112;BME280;66064;50.226;14.344;2023-05-17T05:42:15;99897.56;;;11.31;61.30
77112;BME280;66064;50.226;14.344;2023-05-17T05:44:41;99906.78;;;12.43;58.42
77112;BME280;66064;50.226;14.344;2023-05-17T05:47:07;99897.63;;;13.37;54.90
77112;BME280;66064;50.226;14.344;2023-05-17T05:49:34;99886.22;;;15.07;50.13
77112;BME280;66064;50.226;14.344;2023-05-17T05:52:00;99886.31;;;16.53;48.10
77112;BME280;66064;50.226;14.344;2023-05-17T05:54:26;99885.47;;;17.37;44.50
77112;BME280;66064;50.226;14.344;2023-05-17T05:56:54;99876.84;;;18.38;42.64
77112;BME280;66064;50.226;14.344;2023-05-17T05:59:19;99889.72;;;19.23;39.43
77112;BME280;66064;50.226;14.344;2023-05-17T06:01:46;99890.25;;;19.42;39.24
77112;BME280;66064;50.226;14.344;2023-05-17T06:04:12;99891.31;;;20.18;37.66
77112;BME280;66064;50.226;14.344;2023-05-17T06:06:38;99886.28;;;20.77;36.89
77112;BME280;66064;50.226;14.344;2023-05-17T06:09:04;99891.06;;;20.66;35.50
77112;BME280;66064;50.226;14.344;2023-05-17T06:11:32;99880.13;;;21.05;34.50
77112;BME280;66064;50.226;14.344;2023-05-17T06:13:58;99890.72;;;22.36;33.79
77112;BME280;66064;50.226;14.344;2023-05-17T06:16:24;99885.44;;;22.04;33.70
77112;BME280;66064;50.226;14.344;2023-05-17T06:18:50;99893.66;;;22.84;33.68
77112;BME280;66064;50.226;14.344;2023-05-17T06:21:17;99895.19;;;22.37;32.33
77112;BME280;66064;50.226;14.344;2023-05-17T06:23:44;99894.66;;;23.07;31.57
77112;BME280;66064;50.226;14.344;2023-05-17T06:26:10;99886.63;;;21.92;34.04
77112;BME280;66064;50.226;14.344;2023-05-17T06:28:37;99899.59;;;22.12;34.69
77112;BME280;66064;50.226;14.344;2023-05-17T06:31:03;99894.66;;;21.01;34.08
77112;BME280;66064;50.226;14.344;2023-05-17T06:33:29;99898.69;;;21.20;34.05
77112;BME280;66064;50.226;14.344;2023-05-17T06:35:55;99900.69;;;20.02;37.51
77112;BME280;66064;50.226;14.344;2023-05-17T06:38:22;99910.63;;;20.77;35.55
77112;BME280;66064;50.226;14.344;2023-05-17T06:40:55;99928.81;;;19.94;37.12
77112;BME280;66064;50.226;14.344;2023-05-17T06:43:23;99908.59;;;20.85;34.36
77112;BME280;66064;50.226;14.344;2023-05-17T06:45:51;99916.31;;;21.01;34.86
77112;BME280;66064;50.226;14.344;2023-05-17T06:48:17;99915.09;;;22.64;31.58
77112;BME280;66064;50.226;14.344;2023-05-17T06:50:44;99916.91;;;23.67;30.71
77112;BME280;66064;50.226;14.344;2023-05-17T06:53:10;99912.31;;;24.16;29.29
77112;BME280;66064;50.226;14.344;2023-05-17T06:55:37;99895.41;;;24.53;30.44
77112;BME280;66064;50.226;14.344;2023-05-17T06:58:03;99903.44;;;23.88;29.14
77112;BME280;66064;50.226;14.344;2023-05-17T07:00:29;99923.28;;;22.34;32.61
77112;BME280;66064;50.226;14.344;2023-05-17T07:02:55;99922.44;;;21.74;32.76
77112;BME280;66064;50.226;14.344;2023-05-17T07:05:22;99932.75;;;20.17;36.92
77112;BME280;66064;50.226;14.344;2023-05-17T07:07:54;99936.69;;;20.44;35.41
77112;BME280;66064;50.226;14.344;2023-05-17T07:10:21;99936.09;;;19.90;35.76
77112;BME280;66064;50.226;14.344;2023-05-17T07:12:47;99937.75;;;19.52;38.10
77112;BME280;66064;50.226;14.344;2023-05-17T07:15:14;99930.28;;;20.84;34.93
77112;BME280;66064;50.226;14.344;2023-05-17T07:17:40;99912.31;;;22.39;32.56
77112;BME280;66064;50.226;14.344;2023-05-17T07:20:07;99911.22;;;23.73;29.17
77112;BME280;66064;50.226;14.344;2023-05-17T07:22:33;99914.31;;;23.88;29.96
77112;BME280;66064;50.226;14.344;2023-05-17T07:24:59;99917.81;;;23.68;29.76
77112;BME280;66064;50.226;14.344;2023-05-17T07:27:25;99922.84;;;25.33;28.83
77112;BME280;66064;50.226;14.344;2023-05-17T07:29:52;99910.13;;;24.91;28.19
77112;BME280;66064;50.226;14.344;2023-05-17T07:32:18;99910.66;;;24.79;27.42
77112;BME280;66064;50.226;14.344;2023-05-17T07:34:44;99909.97;;;25.57;28.23
77112;BME280;66064;50.226;14.344;2023-05-17T07:37:11;99909.22;;;26.12;26.12
77112;BME280;66064;50.226;14.344;2023-05-17T07:39:37;99909.97;;;26.90;25.65
77112;BME280;66064;50.226;14.344;2023-05-17T07:42:03;99917.91;;;26.21;27.54
77112;BME280;66064;50.226;14.344;2023-05-17T07:44:29;99906.50;;;25.33;27.23
77112;BME280;66064;50.226;14.344;2023-05-17T07:46:55;99925.69;;;24.21;30.07
77112;BME280;66064;50.226;14.344;2023-05-17T07:49:22;99913.81;;;25.32;28.91
77112;BME280;66064;50.226;14.344;2023-05-17T07:51:49;99923.66;;;25.35;27.97
77112;BME280;66064;50.226;14.344;2023-05-17T07:54:24;99917.53;;;23.99;29.83
77112;BME280;66064;50.226;14.344;2023-05-17T07:57:00;99916.56;;;24.23;28.34
77112;BME280;66064;50.226;14.344;2023-05-17T07:59:27;99922.63;;;21.97;32.47
77112;BME280;66064;50.226;14.344;2023-05-17T08:01:53;99929.16;;;20.92;34.12
77112;BME280;66064;50.226;14.344;2023-05-17T08:04:19;99939.06;;;20.18;35.78
77112;BME280;66064;50.226;14.344;2023-05-17T08:06:45;99925.88;;;18.66;39.41
77112;BME280;66064;50.226;14.344;2023-05-17T08:09:13;99942.06;;;17.26;41.99
77112;BME280;66064;50.226;14.344;2023-05-17T08:11:41;99940.97;;;17.42;42.90
77112;BME280;66064;50.226;14.344;2023-05-17T08:14:15;99943.41;;;17.68;41.58
77112;BME280;66064;50.226;14.344;2023-05-17T08:16:43;99947.03;;;16.75;42.96
77112;BME280;66064;50.226;14.344;2023-05-17T08:19:11;99948.13;;;16.47;44.66
77112;BME280;66064;50.226;14.344;2023-05-17T08:21:41;99941.00;;;17.39;43.87
77112;BME280;66064;50.226;14.344;2023-05-17T08:24:10;99951.00;;;18.05;42.77
77112;BME280;66064;50.226;14.344;2023-05-17T08:26:36;99947.03;;;17.67;42.51
77112;BME280;66064;50.226;14.344;2023-05-17T08:29:03;99951.69;;;20.17;40.12
77112;BME280;66064;50.226;14.344;2023-05-17T08:31:33;99946.97;;;22.85;31.83
77112;BME280;66064;50.226;14.344;2023-05-17T08:33:59;99933.56;;;24.05;30.78
77112;BME280;66064;50.226;14.344;2023-05-17T08:36:25;99928.84;;;26.39;27.15
77112;BME280;66064;50.226;14.344;2023-05-17T08:38:51;99941.94;;;25.53;27.76
77112;BME280;66064;50.226;14.344;2023-05-17T08:41:17;99947.34;;;22.17;32.19
77112;BME280;66064;50.226;14.344;2023-05-17T08:43:47;99954.41;;;20.16;36.03
77112;BME280;66064;50.226;14.344;2023-05-17T08:46:13;99958.50;;;19.95;38.00
77112;BME280;66064;50.226;14.344;2023-05-17T08:48:41;99953.81;;;17.97;40.64
77112;BME280;66064;50.226;14.344;2023-05-17T08:51:08;99956.69;;;17.82;40.66
77112;BME280;66064;50.226;14.344;2023-05-17T08:53:37;99962.22;;;16.81;43.84
77112;BME280;66064;50.226;14.344;2023-05-17T08:56:04;99976.03;;;16.25;44.54
77112;BME280;66064;50.226;14.344;2023-05-17T08:58:33;99980.66;;;16.03;45.30
77112;BME280;66064;50.226;14.344;2023-05-17T09:01:06;99978.78;;;16.17;44.98
77112;BME280;66064;50.226;14.344;2023-05-17T09:03:34;99971.50;;;16.34;45.05
77112;BME280;66064;50.226;14.344;2023-05-17T09:06:02;99978.88;;;15.99;45.55
77112;BME280;66064;50.226;14.344;2023-05-17T09:08:28;99976.09;;;16.16;46.75
77112;BME280;66064;50.226;14.344;2023-05-17T09:10:54;99971.03;;;16.97;44.70
77112;BME280;66064;50.226;14.344;2023-05-17T09:13:25;99969.63;;;16.49;44.05
77112;BME280;66064;50.226;14.344;2023-05-17T09:15:51;99971.31;;;16.60;44.93
77112;BME280;66064;50.226;14.344;2023-05-17T09:18:28;99983.28;;;16.07;44.68
77112;BME280;66064;50.226;14.344;2023-05-17T09:20:55;99976.91;;;16.28;44.46
77112;BME280;66064;50.226;14.344;2023-05-17T09:23:21;99968.13;;;15.96;45.78
77112;BME280;66064;50.226;14.344;2023-05-17T09:25:53;99976.47;;;17.81;40.80
77112;BME280;66064;50.226;14.344;2023-05-17T09:28:20;99976.41;;;18.50;38.97
77112;BME280;66064;50.226;14.344;2023-05-17T09:30:48;99969.97;;;17.97;41.28
77112;BME280;66064;50.226;14.344;2023-05-17T09:33:14;99967.00;;;17.40;41.49
77112;BME280;66064;50.226;14.344;2023-05-17T09:35:42;99976.66;;;17.64;41.71
77112;BME280;66064;50.226;14.344;2023-05-17T09:38:11;99978.13;;;17.88;42.26
77112;BME280;66064;50.226;14.344;2023-05-17T09:40:40;99972.00;;;16.90;43.38
77112;BME280;66064;50.226;14.344;2023-05-17T09:43:06;99995.53;;;16.56;44.83
77112;BME280;66064;50.226;14.344;2023-05-17T09:45:33;99986.44;;;16.76;43.86
77112;BME280;66064;50.226;14.344;2023-05-17T09:48:14;99986.28;;;16.98;43.75
77112;BME280;66064;50.226;14.344;2023-05-17T09:50:49;99979.56;;;17.41;43.08
77112;BME280;66064;50.226;14.344;2023-05-17T09:53:28;99982.38;;;17.31;42.74
77112;BME280;66064;50.226;14.344;2023-05-17T09:55:57;99980.25;;;17.59;42.34
77112;BME280;66064;50.226;14.344;2023-05-17T09:58:25;99969.13;;;17.11;43.14
77112;BME280;66064;50.226;14.344;2023-05-17T10:00:55;99975.78;;;16.58;45.22
77112;BME280;66064;50.226;14.344;2023-05-17T10:03:26;99985.94;;;16.18;47.54
77112;BME280;66064;50.226;14.344;2023-05-17T10:05:55;99991.47;;;15.83;47.89
77112;BME280;66064;50.226;14.344;2023-05-17T10:08:22;99986.72;;;16.34;46.71
77112;BME280;66064;50.226;14.344;2023-05-17T10:10:54;99977.22;;;17.05;44.67
77112;BME280;66064;50.226;14.344;2023-05-17T10:13:23;99972.13;;;17.68;43.98
77112;BME280;66064;50.226;14.344;2023-05-17T10:15:52;99974.66;;;17.80;42.49
77112;BME280;66064;50.226;14.344;2023-05-17T10:18:19;99963.16;;;17.69;42.19
77112;BME280;66064;50.226;14.344;2023-05-17T10:20:46;99972.47;;;17.34;42.74
77112;BME280;66064;50.226;14.344;2023-05-17T10:23:14;99968.09;;;17.21;42.91
77112;BME280;66064;50.226;14.344;2023-05-17T10:25:42;99975.09;;;16.35;45.32
77112;BME280;66064;50.226;14.344;2023-05-17T10:28:09;99979.88;;;15.72;46.00
77112;BME280;66064;50.226;14.344;2023-05-17T10:30:36;99982.44;;;15.96;47.15
77112;BME280;66064;50.226;14.344;2023-05-17T10:33:03;99980.44;;;16.39;46.96
77112;BME280;66064;50.226;14.344;2023-05-17T10:35:29;99979.44;;;16.54;45.47
77112;BME280;66064;50.226;14.344;2023-05-17T10:37:57;99974.25;;;17.37;43.95
77112;BME280;66064;50.226;14.344;2023-05-17T10:40:28;99975.34;;;17.16;44.91
77112;BME280;66064;50.226;14.344;2023-05-17T10:42:56;99980.66;;;17.22;42.94
77112;BME280;66064;50.226;14.344;2023-05-17T10:45:24;99984.94;;;16.36;45.16
77112;BME280;66064;50.226;14.344;2023-05-17T10:47:53;99982.72;;;16.93;44.27
77112;BME280;66064;50.226;14.344;2023-05-17T10:50:24;99977.28;;;17.02;42.39
77112;BME280;66064;50.226;14.344;2023-05-17T10:52:52;99966.44;;;17.08;43.34
77112;BME280;66064;50.226;14.344;2023-05-17T10:55:36;99955.66;;;17.14;42.74
77112;BME280;66064;50.226;14.344;2023-05-17T11:00:39;99984.25;;;15.96;44.17
77112;BME280;66064;50.226;14.344;2023-05-17T11:03:14;99970.41;;;16.61;43.45
77112;BME280;66064;50.226;14.344;2023-05-17T11:05:44;99981.03;;;16.83;43.24
77112;BME280;66064;50.226;14.344;2023-05-17T11:08:30;99982.06;;;16.60;44.02
77112;BME280;66064;50.226;14.344;2023-05-17T11:11:16;99970.78;;;16.06;45.82
77112;BME280;66064;50.226;14.344;2023-05-17T11:16:20;99962.44;;;17.50;42.33
77112;BME280;66064;50.226;14.344;2023-05-17T11:18:52;99951.88;;;18.05;41.68
77112;BME280;66064;50.226;14.344;2023-05-17T11:21:20;99950.94;;;17.36;42.63
77112;BME280;66064;50.226;14.344;2023-05-17T11:23:53;99962.22;;;16.81;43.79
77112;BME280;66064;50.226;14.344;2023-05-17T11:26:36;99959.75;;;16.52;44.76
77112;BME280;66064;50.226;14.344;2023-05-17T11:29:07;99960.00;;;16.09;45.43
77112;BME280;66064;50.226;14.344;2023-05-17T11:31:36;99952.75;;;16.24;45.49
77112;BME280;66064;50.226;14.344;2023-05-17T11:34:07;99959.44;;;16.92;44.06
77112;BME280;66064;50.226;14.344;2023-05-17T11:36:48;99961.75;;;16.18;43.49
77112;BME280;66064;50.226;14.344;2023-05-17T11:39:19;99961.44;;;16.62;44.85
77112;BME280;66064;50.226;14.344;2023-05-17T11:41:53;99963.44;;;16.36;43.41
77112;BME280;66064;50.226;14.344;2023-05-17T11:44:31;99952.34;;;16.85;42.96
77112;BME280;66064;50.226;14.344;2023-05-17T11:47:16;99947.09;;;17.55;41.82
77112;BME280;66064;50.226;14.344;2023-05-17T11:49:43;99952.03;;;18.59;39.52
77112;BME280;66064;50.226;14.344;2023-05-17T11:52:09;99933.44;;;19.87;37.11
77112;BME280;66064;50.226;14.344;2023-05-17T11:54:37;99943.47;;;20.22;35.90
77112;BME280;66064;50.226;14.344;2023-05-17T11:57:04;99948.66;;;19.46;37.45
77112;BME280;66064;50.226;14.344;2023-05-17T11:59:41;99948.69;;;19.45;37.40
77112;BME280;66064;50.226;14.344;2023-05-17T12:02:25;99954.34;;;18.21;38.64
77112;BME280;66064;50.226;14.344;2023-05-17T12:04:51;99958.84;;;18.22;40.43
77112;BME280;66064;50.226;14.344;2023-05-17T12:07:17;99952.44;;;17.61;39.67
77112;BME280;66064;50.226;14.344;2023-05-17T12:09:45;99957.41;;;17.96;41.64
77112;BME280;66064;50.226;14.344;2023-05-17T12:12:11;99961.38;;;18.34;41.58
77112;BME280;66064;50.226;14.344;2023-05-17T12:14:42;99962.59;;;18.10;39.21
77112;BME280;66064;50.226;14.344;2023-05-17T12:17:10;99963.88;;;17.83;41.13
77112;BME280;66064;50.226;14.344;2023-05-17T12:19:38;99967.78;;;18.25;40.66
77112;BME280;66064;50.226;14.344;2023-05-17T12:22:09;99978.59;;;18.22;40.33
77112;BME280;66064;50.226;14.344;2023-05-17T12:24:40;99974.31;;;17.31;42.21
77112;BME280;66064;50.226;14.344;2023-05-17T12:27:08;99968.38;;;16.94;44.46
77112;BME280;66064;50.226;14.344;2023-05-17T12:29:34;99984.81;;;16.51;44.85
77112;BME280;66064;50.226;14.344;2023-05-17T12:32:01;99971.00;;;17.01;40.75
77112;BME280;66064;50.226;14.344;2023-05-17T12:34:29;99977.13;;;17.20;42.77
77112;BME280;66064;50.226;14.344;2023-05-17T12:36:56;99978.97;;;17.12;41.66
77112;BME280;66064;50.226;14.344;2023-05-17T12:39:23;99982.38;;;17.32;41.69
77112;BME280;66064;50.226;14.344;2023-05-17T12:41:50;99983.31;;;17.27;40.39
77112;BME280;66064;50.226;14.344;2023-05-17T12:44:18;99997.19;;;16.76;42.40
77112;BME280;66064;50.226;14.344;2023-05-17T12:46:49;100011.63;;;16.63;43.66
77112;BME280;66064;50.226;14.344;2023-05-17T12:49:23;100009.06;;;16.40;43.57
77112;BME280;66064;50.226;14.344;2023-05-17T12:51:49;100019.94;;;16.22;44.36
77112;BME280;66064;50.226;14.344;2023-05-17T12:54:28;100002.13;;;15.95;44.61
77112;BME280;66064;50.226;14.344;2023-05-17T12:56:56;100003.03;;;16.00;46.55
77112;BME280;66064;50.226;14.344;2023-05-17T12:59:23;100013.66;;;16.22;42.94
77112;BME280;66064;50.226;14.344;2023-05-17T13:01:53;100009.69;;;16.84;45.81
77112;BME280;66064;50.226;14.344;2023-05-17T13:04:30;100008.78;;;16.85;46.49